createdAt,value
2023-04-25T00:02:09.851Z,100927.09
2023-04-25T00:04:39.481Z,101001.13
2023-04-25T00:07:06.468Z,100996.88
2023-04-25T00:09:33.270Z,100988.25
2023-04-25T00:12:00.000Z,101042.50
2023-04-25T00:14:26.835Z,100973.66
2023-04-25T00:16:53.491Z,101045.09
2023-04-25T00:19:20.397Z,101017.56
2023-04-25T00:21:47.439Z,100969.28
2023-04-25T00:24:14.120Z,100970.97
2023-04-25T00:26:40.971Z,100964.09
2023-04-25T00:29:07.696Z,100992.53
2023-04-25T00:31:34.448Z,100963.28
2023-04-25T00:34:01.353Z,100976.19
2023-04-25T00:36:28.655Z,100983.09
2023-04-25T00:38:56.173Z,100964.97
2023-04-25T00:41:23.458Z,100957.28
2023-04-25T00:43:51.339Z,100977.94
2023-04-25T00:46:18.611Z,100996.91
2023-04-25T00:48:45.397Z,100939.22
2023-04-25T00:51:16.964Z,101022.78
2023-04-25T00:53:44.097Z,100972.81
2023-04-25T00:56:10.991Z,100964.19
2023-04-25T00:58:39.423Z,101013.25
2023-04-25T01:01:07.820Z,100974.50
2023-04-25T01:03:36.679Z,101014.13
2023-04-25T01:06:04.045Z,101035.66
2023-04-25T01:08:31.426Z,100990.88
2023-04-25T01:10:58.118Z,100978.00
2023-04-25T01:13:24.907Z,101010.69
2023-04-25T01:15:51.695Z,100950.44
2023-04-25T01:18:20.230Z,100991.78
2023-04-25T01:20:48.195Z,100957.31
2023-04-25T01:23:15.450Z,101012.38
2023-04-25T01:25:42.309Z,101020.19
2023-04-25T01:28:09.175Z,101018.44
2023-04-25T01:30:36.638Z,101004.63
2023-04-25T01:33:06.425Z,100995.19
2023-04-25T01:35:33.286Z,101009.84
2023-04-25T01:38:00.551Z,100957.31
2023-04-25T01:40:28.608Z,100978.00
2023-04-25T01:42:55.833Z,101023.66
2023-04-25T01:45:23.072Z,100990.91
2023-04-25T01:47:51.084Z,100965.09
2023-04-25T01:50:20.419Z,100973.66
2023-04-25T01:52:47.170Z,101014.19
2023-04-25T01:55:13.939Z,100956.47
2023-04-25T01:57:40.924Z,100937.53
2023-04-25T02:00:10.065Z,100983.16
2023-04-25T02:02:37.154Z,100999.50
2023-04-25T02:05:04.132Z,100996.91
2023-04-25T02:07:30.917Z,100940.97
2023-04-25T02:09:57.801Z,100939.25
2023-04-25T02:12:25.532Z,101024.50
2023-04-25T02:14:52.187Z,100989.16
2023-04-25T02:17:19.050Z,100986.59
2023-04-25T02:19:46.120Z,100957.31
2023-04-25T02:22:12.753Z,100957.31
2023-04-25T02:24:39.627Z,101003.84
2023-04-25T02:27:07.074Z,100970.25
2023-04-25T02:29:33.726Z,100923.75
2023-04-25T02:32:00.413Z,100982.25
2023-04-25T02:34:27.122Z,100967.66
2023-04-25T02:36:56.196Z,100940.97
2023-04-25T02:39:23.433Z,100987.50
2023-04-25T02:41:50.122Z,100974.53
2023-04-25T02:44:16.838Z,100984.88
2023-04-25T02:46:43.918Z,100988.34
2023-04-25T02:49:10.759Z,101020.22
2023-04-25T02:51:37.399Z,100951.31
2023-04-25T02:54:04.423Z,100961.63
2023-04-25T02:56:31.148Z,100982.28
2023-04-25T02:58:57.796Z,100966.78
2023-04-25T03:01:24.680Z,101004.69
2023-04-25T03:03:51.573Z,100995.19
2023-04-25T03:06:18.483Z,100991.75
2023-04-25T03:08:45.248Z,100931.47
2023-04-25T03:11:11.956Z,101002.97
2023-04-25T03:13:38.714Z,100961.63
2023-04-25T03:16:05.881Z,100972.84
2023-04-25T03:18:32.696Z,101008.16
2023-04-25T03:20:59.509Z,100963.38
2023-04-25T03:23:27.094Z,100960.75
2023-04-25T03:25:53.844Z,100983.16
2023-04-25T03:28:21.291Z,101002.97
2023-04-25T03:30:48.041Z,100969.41
2023-04-25T03:33:14.791Z,100994.34
2023-04-25T03:35:41.534Z,100923.75
2023-04-25T03:38:08.248Z,100981.44
2023-04-25T03:40:35.015Z,101002.97
2023-04-25T03:43:01.715Z,100926.31
2023-04-25T03:45:28.444Z,100935.78
2023-04-25T03:47:55.195Z,100952.16
2023-04-25T03:50:21.936Z,100948.72
2023-04-25T03:52:48.680Z,100952.16
2023-04-25T03:55:15.532Z,100953.03
2023-04-25T03:57:42.179Z,100965.94
2023-04-25T04:00:09.290Z,101005.56
2023-04-25T04:02:37.700Z,100948.66
2023-04-25T04:05:05.289Z,100959.03
2023-04-25T04:07:33.989Z,100978.81
2023-04-25T04:10:00.900Z,100966.75
2023-04-25T04:12:27.567Z,100935.75
2023-04-25T04:14:54.251Z,101016.75
2023-04-25T04:17:20.890Z,101003.84
2023-04-25T04:19:47.553Z,100986.59
2023-04-25T04:22:14.537Z,100993.50
2023-04-25T04:24:41.212Z,101005.56
2023-04-25T04:27:07.879Z,100972.81
2023-04-25T04:29:34.580Z,100982.28
2023-04-25T04:32:02.204Z,100969.34
2023-04-25T04:34:28.855Z,100935.78
2023-04-25T04:36:56.142Z,100980.56
2023-04-25T04:39:23.328Z,100952.13
2023-04-25T04:41:50.010Z,100928.03
2023-04-25T04:44:16.713Z,101002.09
2023-04-25T04:46:43.658Z,100929.72
2023-04-25T04:49:11.616Z,101016.75
2023-04-25T04:51:39.260Z,100940.91
2023-04-25T04:54:05.960Z,100996.06
2023-04-25T04:56:33.408Z,100996.94
2023-04-25T04:59:00.807Z,100988.31
2023-04-25T05:01:27.812Z,101013.31
2023-04-25T05:03:55.401Z,101021.94
2023-04-25T05:06:22.452Z,100971.94
2023-04-25T05:08:50.154Z,101029.66
2023-04-25T05:11:16.885Z,100946.94
2023-04-25T05:13:43.605Z,101002.13
2023-04-25T05:16:10.329Z,100953.03
2023-04-25T05:18:37.422Z,100996.97
2023-04-25T05:21:04.259Z,100984.03
2023-04-25T05:23:33.239Z,100989.19
2023-04-25T05:26:00.919Z,100983.16
2023-04-25T05:28:27.644Z,100979.72
2023-04-25T05:30:54.310Z,101015.91
2023-04-25T05:33:21.142Z,100971.97
2023-04-25T05:35:47.975Z,101053.84
2023-04-25T05:38:14.697Z,101071.06
2023-04-25T05:40:41.891Z,100997.81
2023-04-25T05:43:08.725Z,101040.91
2023-04-25T05:45:35.657Z,101003.84
2023-04-25T05:48:02.615Z,101001.25
2023-04-25T05:50:29.438Z,101048.59
2023-04-25T05:52:56.146Z,101050.28
2023-04-25T05:55:23.009Z,101035.66
2023-04-25T05:57:51.513Z,101018.38
2023-04-25T06:00:19.981Z,101064.03
2023-04-25T06:02:46.916Z,101019.22
2023-04-25T06:05:13.949Z,101064.84
2023-04-25T06:07:40.847Z,101048.50
2023-04-25T06:10:08.513Z,101039.06
2023-04-25T06:12:35.223Z,101089.03
2023-04-25T06:15:02.682Z,101059.75
2023-04-25T06:17:30.582Z,101048.53
2023-04-25T06:19:57.841Z,101049.41
2023-04-25T06:22:24.581Z,101105.44
2023-04-25T06:24:51.236Z,101057.22
2023-04-25T06:27:17.967Z,101030.47
2023-04-25T06:29:44.650Z,101047.72
2023-04-25T06:32:11.363Z,101103.69
2023-04-25T06:34:38.115Z,101060.69
2023-04-25T06:37:04.779Z,101041.72
2023-04-25T06:39:31.492Z,101024.47
2023-04-25T06:41:58.212Z,101054.59
2023-04-25T06:44:27.197Z,101045.16
2023-04-25T06:46:54.007Z,101045.75
2023-04-25T06:49:20.782Z,101016.53
2023-04-25T06:51:47.502Z,101041.41
2023-04-25T06:54:14.152Z,101055.66
2023-04-25T06:56:43.529Z,101053.25
2023-04-25T06:59:10.405Z,101050.59
2023-04-25T07:01:37.084Z,101074.81
2023-04-25T07:04:04.502Z,101064.94
2023-04-25T07:06:32.199Z,101068.88
2023-04-25T07:08:59.053Z,101114.38
2023-04-25T07:11:27.354Z,101058.88
2023-04-25T07:13:54.065Z,101038.44
2023-04-25T07:16:20.784Z,101061.47
2023-04-25T07:18:47.554Z,101043.84
2023-04-25T07:21:14.285Z,101039.56
2023-04-25T07:23:42.012Z,101061.44
2023-04-25T07:26:09.029Z,101056.75
2023-04-25T07:28:35.747Z,101028.06
2023-04-25T07:31:02.548Z,101083.78
2023-04-25T07:33:29.355Z,101074.78
2023-04-25T07:35:56.888Z,101008.44
2023-04-25T07:38:23.968Z,101033.94
2023-04-25T07:40:50.996Z,101018.41
2023-04-25T07:43:17.959Z,101083.88
2023-04-25T07:45:45.753Z,101115.19
2023-04-25T07:48:12.556Z,101090.78
2023-04-25T07:50:39.253Z,101075.28
2023-04-25T07:53:05.894Z,101053.63
2023-04-25T07:55:32.618Z,101125.03
2023-04-25T07:57:59.282Z,101126.75
2023-04-25T08:00:25.964Z,101097.91
2023-04-25T08:02:52.837Z,101046.47
2023-04-25T08:05:22.446Z,101039.28
2023-04-25T08:07:49.703Z,101084.94
2023-04-25T08:10:16.429Z,101078.38
2023-04-25T08:12:43.218Z,101045.88
2023-04-25T08:15:10.453Z,101116.75
2023-04-25T08:17:37.449Z,101042.75
2023-04-25T08:20:06.927Z,101118.91
2023-04-25T08:22:33.733Z,101067.50
2023-04-25T08:25:00.649Z,101037.13
2023-04-25T08:27:27.381Z,101098.41
2023-04-25T08:29:54.056Z,101101.66
2023-04-25T08:32:22.273Z,101055.22
2023-04-25T08:34:48.987Z,101127.41
2023-04-25T08:37:15.657Z,101061.28
2023-04-25T08:39:43.210Z,101126.50
2023-04-25T08:42:11.191Z,101117.22
2023-04-25T08:44:38.461Z,101128.50
2023-04-25T08:47:06.825Z,101127.97
2023-04-25T08:49:34.764Z,101128.38
2023-04-25T08:52:04.924Z,101121.28
2023-04-25T08:54:35.581Z,101088.34
2023-04-25T08:57:05.290Z,101131.41
2023-04-25T08:59:36.106Z,101098.00
2023-04-25T09:02:04.525Z,101101.63
2023-04-25T09:04:32.925Z,101143.78
2023-04-25T09:06:59.936Z,101118.78
2023-04-25T09:09:26.576Z,101125.50
2023-04-25T09:11:55.406Z,101116.38
2023-04-25T09:14:24.158Z,101086.50
2023-04-25T09:17:01.857Z,101171.69
2023-04-25T09:19:47.558Z,101114.38
2023-04-25T09:22:14.416Z,101105.69
2023-04-25T09:24:44.627Z,101100.41
2023-04-25T09:27:24.173Z,101151.31
2023-04-25T09:29:59.363Z,101096.75
2023-04-25T09:32:26.836Z,101174.38
2023-04-25T09:34:55.780Z,101168.00
2023-04-25T09:37:30.186Z,101074.28
2023-04-25T09:40:00.379Z,101158.63
2023-04-25T09:42:30.062Z,101132.66
2023-04-25T09:44:58.046Z,101043.28
2023-04-25T09:47:29.550Z,101166.91
2023-04-25T09:49:56.501Z,101068.69
2023-04-25T09:52:26.129Z,101136.03
2023-04-25T09:54:53.650Z,101136.19
2023-04-25T09:57:22.434Z,101137.94
2023-04-25T09:59:51.701Z,101076.09
2023-04-25T10:02:21.708Z,101116.66
2023-04-25T10:04:55.762Z,101102.19
2023-04-25T10:07:32.539Z,101124.06
2023-04-25T10:10:04.705Z,101127.31
2023-04-25T10:12:35.187Z,101150.25
2023-04-25T10:15:03.890Z,101165.78
2023-04-25T10:17:31.112Z,101142.69
2023-04-25T10:19:58.594Z,101119.53
2023-04-25T10:22:32.296Z,101100.13
2023-04-25T10:24:59.650Z,101126.59
2023-04-25T10:27:29.405Z,101160.09
2023-04-25T10:30:07.417Z,101134.91
2023-04-25T10:32:34.592Z,101134.44
2023-04-25T10:35:33.814Z,101150.47
2023-04-25T10:38:01.610Z,101122.72
2023-04-25T10:40:28.485Z,101120.53
2023-04-25T10:42:57.104Z,101146.28
2023-04-25T10:45:23.974Z,101148.69
2023-04-25T10:47:50.738Z,101119.84
2023-04-25T10:50:17.975Z,101160.38
2023-04-25T10:52:45.736Z,101140.75
2023-04-25T10:55:12.558Z,101202.00
2023-04-25T10:57:45.154Z,101131.03
2023-04-25T11:00:20.471Z,101154.50
2023-04-25T11:02:54.366Z,101169.81
2023-04-25T11:05:33.124Z,101151.72
2023-04-25T11:08:07.878Z,101191.94
2023-04-25T11:10:38.386Z,101223.63
2023-04-25T11:13:06.010Z,101199.75
2023-04-25T11:15:32.776Z,101179.03
2023-04-25T11:17:59.547Z,101135.94
2023-04-25T11:20:29.255Z,101168.41
2023-04-25T11:23:00.239Z,101207.22
2023-04-25T11:25:27.251Z,101123.13
2023-04-25T11:27:57.028Z,101214.72
2023-04-25T11:30:24.945Z,101174.56
2023-04-25T11:32:53.210Z,101167.59
2023-04-25T11:35:21.958Z,101166.19
2023-04-25T11:37:48.890Z,101177.28
2023-04-25T11:40:15.844Z,101183.06
2023-04-25T11:42:47.663Z,101198.03
2023-04-25T11:45:15.514Z,101153.16
2023-04-25T11:47:42.504Z,101191.97
2023-04-25T11:50:09.897Z,101162.31
2023-04-25T11:52:40.306Z,101181.53
2023-04-25T11:55:09.753Z,101134.25
2023-04-25T11:57:40.019Z,101172.97
2023-04-25T12:00:19.131Z,101194.22
2023-04-25T12:02:49.013Z,101175.28
2023-04-25T12:05:31.251Z,101179.91
2023-04-25T12:08:11.166Z,101178.13
2023-04-25T12:10:40.661Z,101142.81
2023-04-25T12:13:21.048Z,101145.94
2023-04-25T12:15:47.980Z,101127.75
2023-04-25T12:18:14.748Z,101132.13
2023-04-25T12:20:42.699Z,101148.16
2023-04-25T12:23:09.400Z,101104.78
2023-04-25T12:25:37.227Z,101136.53
2023-04-25T12:28:20.747Z,101149.84
2023-04-25T12:31:03.133Z,101189.47
2023-04-25T12:33:40.880Z,101185.69
2023-04-25T12:36:12.756Z,101153.38
2023-04-25T12:38:41.308Z,101223.47
2023-04-25T12:41:08.458Z,101222.97
2023-04-25T12:43:35.245Z,101160.88
2023-04-25T12:46:02.251Z,101225.75
2023-04-25T12:48:28.958Z,101203.34
2023-04-25T12:50:55.781Z,101169.66
2023-04-25T12:53:25.228Z,101197.25
2023-04-25T12:55:52.317Z,101211.25
2023-04-25T12:58:20.991Z,101232.44
2023-04-25T13:00:47.869Z,101197.44
2023-04-25T13:03:14.713Z,101200.13
2023-04-25T13:05:42.238Z,101207.19
2023-04-25T13:08:09.222Z,101221.47
2023-04-25T13:10:37.140Z,101209.81
2023-04-25T13:13:03.972Z,101188.81
2023-04-25T13:15:31.258Z,101220.22
2023-04-25T13:17:57.970Z,101200.78
2023-04-25T13:20:24.839Z,101227.28
2023-04-25T13:22:51.625Z,101197.53
2023-04-25T13:25:18.588Z,101170.63
2023-04-25T13:27:45.847Z,101167.91
2023-04-25T13:30:13.161Z,101190.06
2023-04-25T13:32:40.635Z,101176.78
2023-04-25T13:35:10.793Z,101174.56
2023-04-25T13:37:39.020Z,101155.09
2023-04-25T13:40:10.263Z,101175.44
2023-04-25T13:42:38.269Z,101157.22
2023-04-25T13:45:05.693Z,101198.09
2023-04-25T13:47:32.493Z,101196.38
2023-04-25T13:49:59.225Z,101161.84
2023-04-25T13:52:26.880Z,101139.47
2023-04-25T13:54:53.635Z,101179.19
2023-04-25T13:57:20.778Z,101206.34
2023-04-25T13:59:47.727Z,101140.63
2023-04-25T14:02:14.585Z,101150.59
2023-04-25T14:04:42.018Z,101170.88
2023-04-25T14:07:09.504Z,101174.56
2023-04-25T14:09:36.311Z,101182.31
2023-04-25T14:12:03.260Z,101143.50
2023-04-25T14:14:30.010Z,101178.13
2023-04-25T14:16:58.120Z,101159.28
2023-04-25T14:19:25.672Z,101155.75
2023-04-25T14:21:52.371Z,101177.69
2023-04-25T14:24:18.990Z,101180.34
2023-04-25T14:26:45.820Z,101192.44
2023-04-25T14:29:13.174Z,101145.34
2023-04-25T14:31:41.415Z,101187.72
2023-04-25T14:34:08.979Z,101201.06
2023-04-25T14:36:37.186Z,101139.88
2023-04-25T14:39:04.246Z,101208.47
2023-04-25T14:41:31.356Z,101158.22
2023-04-25T14:43:58.078Z,101158.19
2023-04-25T14:46:24.920Z,101137.94
2023-04-25T14:48:52.343Z,101176.69
2023-04-25T14:51:19.161Z,101138.25
2023-04-25T14:53:45.997Z,101141.94
2023-04-25T14:56:13.626Z,101135.69
2023-04-25T14:58:41.740Z,101135.97
2023-04-25T15:01:09.343Z,101133.59
2023-04-25T15:03:36.422Z,101151.38
2023-04-25T15:06:03.453Z,101206.53
2023-04-25T15:08:30.134Z,101216.03
2023-04-25T15:10:57.020Z,101200.09
2023-04-25T15:13:23.834Z,101155.28
2023-04-25T15:15:52.429Z,101212.88
2023-04-25T15:18:23.935Z,101223.75
2023-04-25T15:20:52.469Z,101222.97
2023-04-25T15:23:20.030Z,101199.75
2023-04-25T15:25:47.200Z,101181.22
2023-04-25T15:28:17.536Z,101213.31
2023-04-25T15:30:47.563Z,101212.13
2023-04-25T15:33:14.604Z,101139.25
2023-04-25T15:35:41.437Z,101169.69
2023-04-25T15:38:09.608Z,101215.03
2023-04-25T15:40:36.499Z,101176.00
2023-04-25T15:43:03.497Z,101175.31
2023-04-25T15:45:32.376Z,101207.91
2023-04-25T15:47:59.306Z,101198.47
2023-04-25T15:50:26.441Z,101174.72
2023-04-25T15:52:53.505Z,101190.28
2023-04-25T15:55:21.908Z,101206.53
2023-04-25T15:57:49.942Z,101204.47
2023-04-25T16:00:22.141Z,101168.03
2023-04-25T16:02:49.113Z,101207.69
2023-04-25T16:05:16.538Z,101169.56
2023-04-25T16:07:44.726Z,101217.38
2023-04-25T16:10:12.552Z,101170.69
2023-04-25T16:12:40.210Z,101207.44
2023-04-25T16:15:07.841Z,101184.34
2023-04-25T16:17:34.737Z,101207.84
2023-04-25T16:20:10.149Z,101161.16
2023-04-25T16:22:39.023Z,101178.16
2023-04-25T16:25:06.436Z,101180.25
2023-04-25T16:27:34.855Z,101196.84
2023-04-25T16:30:02.691Z,101151.22
2023-04-25T16:32:29.521Z,101166.75
2023-04-25T16:34:58.255Z,101132.50
2023-04-25T16:37:25.889Z,101184.97
2023-04-25T16:39:52.831Z,101211.09
2023-04-25T16:42:19.626Z,101164.28
2023-04-25T16:44:46.343Z,101170.81
2023-04-25T16:47:16.350Z,101177.31
2023-04-25T16:49:44.808Z,101218.00
2023-04-25T16:52:12.969Z,101221.31
2023-04-25T16:54:39.709Z,101188.50
2023-04-25T16:57:10.460Z,101149.34
2023-04-25T16:59:38.497Z,101222.78
2023-04-25T17:02:05.361Z,101223.13
2023-04-25T17:04:32.341Z,101166.31
2023-04-25T17:06:59.130Z,101183.94
2023-04-25T17:09:26.798Z,101198.38
2023-04-25T17:11:54.425Z,101186.91
2023-04-25T17:14:21.132Z,101166.84
2023-04-25T17:16:47.904Z,101159.59
2023-04-25T17:19:14.709Z,101146.16
2023-04-25T17:21:41.983Z,101202.81
2023-04-25T17:24:12.253Z,101201.31
2023-04-25T17:26:39.460Z,101192.31
2023-04-25T17:29:06.282Z,101153.81
2023-04-25T17:31:33.128Z,101175.06
2023-04-25T17:34:00.000Z,101146.00
2023-04-25T17:36:26.643Z,101188.75
2023-04-25T17:38:53.397Z,101161.44
2023-04-25T17:41:20.976Z,101192.78
2023-04-25T17:43:48.920Z,101196.00
2023-04-25T17:46:15.932Z,101189.22
2023-04-25T17:48:42.680Z,101187.94
2023-04-25T17:51:09.481Z,101174.56
2023-04-25T17:53:36.611Z,101174.81
2023-04-25T17:56:05.273Z,101159.31
2023-04-25T17:58:33.545Z,101171.09
2023-04-25T18:01:00.268Z,101195.47
2023-04-25T18:03:27.136Z,101246.16
2023-04-25T18:05:53.856Z,101200.28
2023-04-25T18:08:22.686Z,101178.69
2023-04-25T18:10:49.625Z,101161.81
2023-04-25T18:13:17.395Z,101153.03
2023-04-25T18:15:44.693Z,101144.28
2023-04-25T18:18:19.804Z,101171.59
2023-04-25T18:20:47.379Z,101195.88
2023-04-25T18:23:14.055Z,101232.84
2023-04-25T18:25:41.826Z,101159.88
2023-04-25T18:28:09.136Z,101189.72
2023-04-25T18:30:37.942Z,101114.63
2023-04-25T18:33:04.936Z,101181.66
2023-04-25T18:35:31.756Z,101217.06
2023-04-25T18:37:58.417Z,101195.56
2023-04-25T18:40:25.153Z,101161.41
2023-04-25T18:42:51.901Z,101243.09
2023-04-25T18:45:18.537Z,101202.75
2023-04-25T18:47:46.814Z,101172.66
2023-04-25T18:50:13.778Z,101187.09
2023-04-25T18:52:41.327Z,101167.44
2023-04-25T18:55:08.553Z,101180.47
2023-04-25T18:57:35.235Z,101197.69
2023-04-25T19:00:05.376Z,101177.13
2023-04-25T19:02:32.328Z,101194.28
2023-04-25T19:04:59.180Z,101192.53
2023-04-25T19:07:28.282Z,101192.50
2023-04-25T19:09:55.150Z,101210.91
2023-04-25T19:12:21.953Z,101195.13
2023-04-25T19:14:50.417Z,101159.31
2023-04-25T19:17:17.177Z,101222.03
2023-04-25T19:19:43.925Z,101241.06
2023-04-25T19:22:11.680Z,101194.56
2023-04-25T19:24:38.348Z,101206.63
2023-04-25T19:27:05.141Z,101209.88
2023-04-25T19:29:34.024Z,101238.34
2023-04-25T19:32:03.181Z,101229.81
2023-04-25T19:34:29.884Z,101232.44
2023-04-25T19:36:56.620Z,101226.41
2023-04-25T19:39:23.548Z,101205.78
2023-04-25T19:41:50.328Z,101198.09
2023-04-25T19:44:16.999Z,101221.34
2023-04-25T19:46:46.745Z,101203.25
2023-04-25T19:49:13.559Z,101265.47
2023-04-25T19:51:40.764Z,101189.59
2023-04-25T19:54:07.691Z,101227.53
2023-04-25T19:56:34.474Z,101236.22
2023-04-25T19:59:01.194Z,101229.50
2023-04-25T20:01:28.131Z,101231.19
2023-04-25T20:03:55.246Z,101217.47
2023-04-25T20:06:23.373Z,101224.41
2023-04-25T20:08:53.761Z,101252.84
2023-04-25T20:11:21.650Z,101253.69
2023-04-25T20:13:48.440Z,101218.59
2023-04-25T20:16:20.084Z,101256.50
2023-04-25T20:18:48.612Z,101262.56
2023-04-25T20:21:17.679Z,101248.78
2023-04-25T20:23:44.668Z,101228.97
2023-04-25T20:26:12.705Z,101204.88
2023-04-25T20:28:40.038Z,101209.28
2023-04-25T20:31:06.867Z,101210.97
2023-04-25T20:33:37.769Z,101248.00
2023-04-25T20:36:05.121Z,101189.47
2023-04-25T20:38:32.956Z,101240.28
2023-04-25T20:41:00.488Z,101236.84
2023-04-25T20:43:27.255Z,101250.66
2023-04-25T20:45:55.081Z,101212.81
2023-04-25T20:48:22.256Z,101190.41
2023-04-25T20:50:49.049Z,101207.63
2023-04-25T20:53:15.763Z,101229.22
2023-04-25T20:55:42.766Z,101226.63
2023-04-25T20:58:09.487Z,101239.53
2023-04-25T21:00:36.457Z,101177.53
2023-04-25T21:03:05.182Z,101212.81
2023-04-25T21:05:32.258Z,101263.66
2023-04-25T21:07:59.062Z,101251.63
2023-04-25T21:10:25.739Z,101207.72
2023-04-25T21:12:53.129Z,101247.41
2023-04-25T21:15:22.723Z,101269.00
2023-04-25T21:17:50.639Z,101214.72
2023-04-25T21:20:19.160Z,101207.84
2023-04-25T21:22:52.003Z,101219.06
2023-04-25T21:25:31.290Z,101225.09
2023-04-25T21:27:59.365Z,101306.13
2023-04-25T21:30:26.283Z,101226.84
2023-04-25T21:32:53.499Z,101232.88
2023-04-25T21:35:21.371Z,101286.31
2023-04-25T21:37:48.925Z,101232.03
2023-04-25T21:40:15.758Z,101256.16
2023-04-25T21:42:44.762Z,101255.31
2023-04-25T21:45:12.103Z,101278.59
2023-04-25T21:47:39.231Z,101273.47
2023-04-25T21:50:06.578Z,101257.13
2023-04-25T21:52:33.579Z,101318.31
2023-04-25T21:55:00.414Z,101312.34
2023-04-25T21:57:27.159Z,101264.91
2023-04-25T21:59:53.831Z,101208.84
2023-04-25T22:02:20.889Z,101282.09
2023-04-25T22:04:48.085Z,101251.09
2023-04-25T22:07:15.645Z,101293.38
2023-04-25T22:09:53.775Z,101226.16
2023-04-25T22:12:21.617Z,101209.78
2023-04-25T22:14:48.970Z,101260.66
2023-04-25T22:17:15.726Z,101300.31
2023-04-25T22:19:43.309Z,101240.81
2023-04-25T22:22:10.029Z,101209.75
2023-04-25T22:24:36.717Z,101271.81
2023-04-25T22:27:03.478Z,101237.31
2023-04-25T22:29:30.130Z,101226.94
2023-04-25T22:31:57.084Z,101299.44
2023-04-25T22:34:23.921Z,101308.91
2023-04-25T22:36:50.616Z,101264.94
2023-04-25T22:39:17.316Z,101298.53
2023-04-25T22:41:44.186Z,101296.88
2023-04-25T22:44:11.297Z,101280.47
2023-04-25T22:46:38.101Z,101270.97
2023-04-25T22:49:05.307Z,101330.50
2023-04-25T22:51:33.276Z,101308.09
2023-04-25T22:54:00.727Z,101289.13
2023-04-25T22:56:30.274Z,101315.00
2023-04-25T22:58:57.333Z,101286.53
2023-04-25T23:01:24.961Z,101305.53
2023-04-25T23:03:51.920Z,101291.78
2023-04-25T23:06:18.934Z,101326.31
2023-04-25T23:08:45.686Z,101271.13
2023-04-25T23:11:12.567Z,101279.75
2023-04-25T23:13:39.502Z,101287.53
2023-04-25T23:16:10.995Z,101331.50
2023-04-25T23:18:39.404Z,101351.41
2023-04-25T23:21:11.443Z,101308.25
2023-04-25T23:23:38.828Z,101309.13
2023-04-25T23:26:09.923Z,101323.78
2023-04-25T23:28:41.839Z,101314.28
2023-04-25T23:31:10.662Z,101334.16
2023-04-25T23:33:37.561Z,101240.97
2023-04-25T23:36:04.548Z,101285.84
2023-04-25T23:38:32.324Z,101310.84
2023-04-25T23:40:59.091Z,101292.75
2023-04-25T23:43:25.983Z,101320.34
2023-04-25T23:45:54.293Z,101303.97
2023-04-25T23:48:21.018Z,101253.91
2023-04-25T23:50:47.674Z,101246.16
2023-04-25T23:53:14.418Z,101284.09
2023-04-25T23:55:41.075Z,101266.84
2023-04-25T23:58:08.097Z,101263.41
